< Cyclone 199702 1997 Season Cyclone 199704 >
Cyclone 199703 (NICHOLAS)
General InformationDetailed Track InformationTrack Information on Google MapsList of All Images || ResourceGoogle EarthGE AnimationAtom FeedGeoJSON
Detalied Best Track Wind (Time Zone = UTC)
Year Month Day Hour Lat. Long. Wind (kt) Gust (kt) Direc. of Major Storm Axis Radius of Major Storm Axis (nm) Radius of Minor Storm Axis (nm) Direc. of Major Gale Axis Radius of Major Gale Axis (nm) Radius of Minor Gale Axis (nm) Image
1996 12 12 07 -10.9 124.5 23 -1 symmetric - - symmetric - - Image
1996 12 12 13 -11.4 124.2 27 -1 symmetric - - symmetric - - Image
1996 12 12 19 -11.9 123.9 27 -1 symmetric - - symmetric - - Image
1996 12 12 22 -12.2 123.9 27 -1 symmetric - - symmetric - - Image
1996 12 13 01 -12.6 123.8 29 -1 symmetric - - symmetric - - Image
1996 12 13 04 -12.9 123.8 29 -1 symmetric - - symmetric - - Image
1996 12 13 07 -13.2 123.7 33 -1 symmetric - - symmetric - - Image
1996 12 13 10 -13.5 123.6 33 -1 symmetric - - symmetric - - Image
1996 12 13 13 -13.8 123.6 33 -1 symmetric - - symmetric - - Image
1996 12 13 16 -14.1 123.5 35 -1 symmetric - - symmetric - - Image
1996 12 13 19 -14.3 123.5 39 -1 symmetric - - symmetric - - Image
1996 12 13 22 -14.6 123.5 41 -1 symmetric - - symmetric - - Image
1996 12 14 01 -14.8 123.5 45 -1 symmetric - - symmetric - - Image
1996 12 14 04 -15.1 123.5 47 -1 symmetric - - symmetric - - Image
1996 12 14 07 -15.4 123.5 47 -1 symmetric - - symmetric - - Image
1996 12 14 10 -15.8 123.5 47 -1 symmetric - - symmetric - - Image
1996 12 14 13 -16.2 123.5 45 -1 symmetric - - symmetric - - Image
1996 12 14 16 -16.5 123.5 41 -1 symmetric - - symmetric - - Image
1996 12 14 19 -16.8 123.5 35 -1 symmetric - - symmetric - - Image
1996 12 14 22 -17.1 123.5 35 -1 symmetric - - symmetric - - Image
1996 12 15 01 -17.3 123.5 35 -1 symmetric - - symmetric - - Image
1996 12 15 07 -17.6 123.5 35 -1 symmetric - - symmetric - - Image
1996 12 15 13 -18.0 123.6 29 -1 symmetric - - symmetric - - Image
1996 12 15 19 -18.5 123.7 29 -1 symmetric - - symmetric - - Image
1996 12 16 01 -19.0 123.8 27 -1 symmetric - - symmetric - - Image
1996 12 16 07 -19.6 123.9 27 -1 symmetric - - symmetric - - Image
< Cyclone 199702 1997 Season Cyclone 199704 >

Help